createdAt,value
2023-05-19T00:00:09.797Z,23.63
2023-05-19T00:01:09.785Z,23.62
2023-05-19T00:02:09.822Z,23.62
2023-05-19T00:03:09.851Z,23.63
2023-05-19T00:04:09.774Z,23.63
2023-05-19T00:05:09.787Z,23.62
2023-05-19T00:06:09.800Z,23.63
2023-05-19T00:07:09.729Z,23.63
2023-05-19T00:08:09.733Z,23.62
2023-05-19T00:09:09.737Z,23.62
2023-05-19T00:10:09.705Z,23.62
2023-05-19T00:11:09.715Z,23.62
2023-05-19T00:12:09.719Z,23.62
2023-05-19T00:13:09.736Z,23.62
2023-05-19T00:14:09.795Z,23.62
2023-05-19T00:15:09.677Z,23.62
2023-05-19T00:16:09.739Z,23.62
2023-05-19T00:17:09.647Z,23.62
2023-05-19T00:18:09.699Z,23.62
2023-05-19T00:19:09.754Z,23.61
2023-05-19T00:20:09.670Z,23.61
2023-05-19T00:21:09.610Z,23.61
2023-05-19T00:22:09.643Z,23.62
2023-05-19T00:23:09.640Z,23.62
2023-05-19T00:24:09.617Z,23.61
2023-05-19T00:25:09.602Z,23.61
2023-05-19T00:26:09.630Z,23.62
2023-05-19T00:27:09.640Z,23.61
2023-05-19T00:28:09.635Z,23.61
2023-05-19T00:29:09.576Z,23.62
2023-05-19T00:30:09.620Z,23.61
2023-05-19T00:31:09.531Z,23.62
2023-05-19T00:32:09.851Z,23.61
2023-05-19T00:33:09.617Z,23.61
2023-05-19T00:34:09.564Z,23.61
2023-05-19T00:35:09.583Z,23.61
2023-05-19T00:36:10.117Z,23.61
2023-05-19T00:37:09.607Z,23.60
2023-05-19T00:38:09.545Z,23.61
2023-05-19T00:39:09.549Z,23.61
2023-05-19T00:40:09.556Z,23.60
2023-05-19T00:41:09.624Z,23.61
2023-05-19T00:42:09.634Z,23.60
2023-05-19T00:43:09.688Z,23.61
2023-05-19T00:44:09.632Z,23.61
2023-05-19T00:45:09.653Z,23.61
2023-05-19T00:46:09.723Z,23.60
2023-05-19T00:47:09.708Z,23.60
2023-05-19T00:48:09.746Z,23.60
2023-05-19T00:49:09.787Z,23.60
2023-05-19T00:50:09.791Z,23.61
2023-05-19T00:51:09.755Z,23.60
2023-05-19T00:52:09.787Z,23.60
2023-05-19T00:53:09.835Z,23.60
2023-05-19T00:54:09.844Z,23.60
2023-05-19T00:55:10.667Z,23.60
2023-05-19T00:56:09.862Z,23.60
2023-05-19T00:57:09.874Z,23.59
2023-05-19T00:58:09.955Z,23.59
2023-05-19T00:59:09.954Z,23.59
2023-05-19T01:00:09.972Z,23.60
2023-05-19T01:01:10.057Z,23.60
2023-05-19T01:02:10.067Z,23.60
2023-05-19T01:03:10.321Z,23.60
2023-05-19T01:04:10.169Z,23.59
2023-05-19T01:05:10.049Z,23.60
2023-05-19T01:06:10.043Z,23.60
2023-05-19T01:07:10.132Z,23.59
2023-05-19T01:08:10.127Z,23.60
2023-05-19T01:09:10.171Z,23.60
2023-05-19T01:10:10.168Z,23.60
2023-05-19T01:11:10.243Z,23.59
2023-05-19T01:12:10.228Z,23.59
2023-05-19T01:13:10.285Z,23.59
2023-05-19T01:14:10.307Z,23.59
2023-05-19T01:15:11.120Z,23.59
2023-05-19T01:16:10.359Z,23.58
2023-05-19T01:17:10.346Z,23.59
2023-05-19T01:18:10.746Z,23.59
2023-05-19T01:19:10.440Z,23.59
2023-05-19T01:20:10.423Z,23.59
2023-05-19T01:21:10.425Z,23.59
2023-05-19T01:22:10.460Z,23.59
2023-05-19T01:23:10.504Z,23.59
2023-05-19T01:24:10.764Z,23.59
2023-05-19T01:25:10.555Z,23.58
2023-05-19T01:26:10.551Z,23.59
2023-05-19T01:27:11.192Z,23.58
2023-05-19T01:28:10.635Z,23.59
2023-05-19T01:29:10.635Z,23.59
2023-05-19T01:30:10.650Z,23.59
2023-05-19T01:31:10.734Z,23.59
2023-05-19T01:32:11.692Z,23.59
2023-05-19T01:33:10.738Z,23.58
2023-05-19T01:34:11.752Z,23.59
2023-05-19T01:35:10.826Z,23.58
2023-05-19T01:36:10.783Z,23.58
2023-05-19T01:37:10.845Z,23.58
2023-05-19T01:38:10.888Z,23.58
2023-05-19T01:39:10.894Z,23.58
2023-05-19T01:40:10.900Z,23.58
2023-05-19T01:41:10.933Z,23.58
2023-05-19T01:42:10.980Z,23.58
2023-05-19T01:43:10.994Z,23.58
2023-05-19T01:44:11.030Z,23.58
2023-05-19T01:45:11.008Z,23.58
2023-05-19T01:46:11.082Z,23.58
2023-05-19T01:47:11.032Z,23.57
2023-05-19T01:48:11.344Z,23.58
2023-05-19T01:49:11.097Z,23.58
2023-05-19T01:50:11.093Z,23.58
2023-05-19T01:51:11.088Z,23.58
2023-05-19T01:52:11.060Z,23.58
2023-05-19T01:53:11.122Z,23.57
2023-05-19T01:54:11.101Z,23.58
2023-05-19T01:55:11.189Z,23.58
2023-05-19T01:56:11.185Z,23.58
2023-05-19T01:57:11.136Z,23.57
2023-05-19T01:58:11.201Z,23.57
2023-05-19T01:59:11.202Z,23.58
2023-05-19T02:00:11.233Z,23.57
2023-05-19T02:01:11.284Z,23.57
2023-05-19T02:02:11.230Z,23.58
2023-05-19T02:03:11.286Z,23.57
2023-05-19T02:04:11.340Z,23.57
2023-05-19T02:05:11.278Z,23.56
2023-05-19T02:06:11.296Z,23.57
2023-05-19T02:07:14.150Z,23.56
2023-05-19T02:08:12.288Z,23.57
2023-05-19T02:09:11.326Z,23.56
2023-05-19T02:10:11.314Z,23.57
2023-05-19T02:11:11.285Z,23.56
2023-05-19T02:12:11.297Z,23.56
2023-05-19T02:13:11.309Z,23.57
2023-05-19T02:14:11.307Z,23.56
2023-05-19T02:15:11.329Z,23.56
2023-05-19T02:16:11.359Z,23.56
2023-05-19T02:17:11.252Z,23.57
2023-05-19T02:18:11.238Z,23.56
2023-05-19T02:19:11.259Z,23.56
2023-05-19T02:20:11.244Z,23.56
2023-05-19T02:21:11.288Z,23.56
2023-05-19T02:22:11.204Z,23.56
2023-05-19T02:23:11.174Z,23.57
2023-05-19T02:24:11.209Z,23.56
2023-05-19T02:25:11.186Z,23.56
2023-05-19T02:26:11.206Z,23.56
2023-05-19T02:27:11.135Z,23.56
2023-05-19T02:28:11.159Z,23.56
2023-05-19T02:29:11.200Z,23.56
2023-05-19T02:30:11.164Z,23.56
2023-05-19T02:31:11.207Z,23.56
2023-05-19T02:32:11.317Z,23.56
2023-05-19T02:33:11.181Z,23.56
2023-05-19T02:34:11.135Z,23.55
2023-05-19T02:35:11.143Z,23.56
2023-05-19T02:36:11.103Z,23.56
2023-05-19T02:37:11.108Z,23.56
2023-05-19T02:38:11.120Z,23.56
2023-05-19T02:39:11.116Z,23.56
2023-05-19T02:40:11.134Z,23.56
2023-05-19T02:41:11.097Z,23.56
2023-05-19T02:42:11.093Z,23.56
2023-05-19T02:43:11.091Z,23.55
2023-05-19T02:44:11.104Z,23.55
2023-05-19T02:45:11.117Z,23.56
2023-05-19T02:46:11.350Z,23.56
2023-05-19T02:47:11.016Z,23.55
2023-05-19T02:48:11.111Z,23.56
2023-05-19T02:49:11.009Z,23.56
2023-05-19T02:50:10.989Z,23.55
2023-05-19T02:51:11.112Z,23.55
2023-05-19T02:52:11.036Z,23.55
2023-05-19T02:53:10.978Z,23.55
2023-05-19T02:54:10.974Z,23.55
2023-05-19T02:55:10.976Z,23.55
2023-05-19T02:56:10.976Z,23.55
2023-05-19T02:57:10.963Z,23.55
2023-05-19T02:58:10.979Z,23.55
2023-05-19T02:59:10.980Z,23.55
2023-05-19T03:00:10.990Z,23.55
2023-05-19T03:01:10.941Z,23.54
2023-05-19T03:02:10.980Z,23.55
2023-05-19T03:03:10.979Z,23.55
2023-05-19T03:04:10.971Z,23.54
2023-05-19T03:05:10.929Z,23.54
2023-05-19T03:06:10.881Z,23.54
2023-05-19T03:07:11.297Z,23.54
2023-05-19T03:08:11.752Z,23.54
2023-05-19T03:09:10.914Z,23.54
2023-05-19T03:10:10.895Z,23.55
2023-05-19T03:11:10.880Z,23.55
2023-05-19T03:12:10.966Z,23.54
2023-05-19T03:13:10.973Z,23.54
2023-05-19T03:14:10.987Z,23.54
2023-05-19T03:15:11.001Z,23.54
2023-05-19T03:16:11.150Z,23.54
2023-05-19T03:17:11.066Z,23.54
2023-05-19T03:18:11.177Z,23.54
2023-05-19T03:19:11.202Z,23.53
2023-05-19T03:20:11.124Z,23.54
2023-05-19T03:21:11.141Z,23.54
2023-05-19T03:22:11.143Z,23.54
2023-05-19T03:23:11.196Z,23.54
2023-05-19T03:24:11.197Z,23.54
2023-05-19T03:25:11.178Z,23.54
2023-05-19T03:26:11.202Z,23.54
2023-05-19T03:27:11.261Z,23.54
2023-05-19T03:28:11.266Z,23.54
2023-05-19T03:29:11.305Z,23.53
2023-05-19T03:30:11.288Z,23.54
2023-05-19T03:31:11.352Z,23.53
2023-05-19T03:32:11.369Z,23.54
2023-05-19T03:33:11.600Z,23.54
2023-05-19T03:34:11.420Z,23.54
2023-05-19T03:35:11.416Z,23.53
2023-05-19T03:36:11.421Z,23.53
2023-05-19T03:37:11.449Z,23.53
2023-05-19T03:38:11.436Z,23.53
2023-05-19T03:39:11.443Z,23.53
2023-05-19T03:40:11.491Z,23.53
2023-05-19T03:41:12.195Z,23.53
2023-05-19T03:42:11.493Z,23.53
2023-05-19T03:43:11.539Z,23.53
2023-05-19T03:44:11.551Z,23.53
2023-05-19T03:45:11.595Z,23.53
2023-05-19T03:46:11.623Z,23.53
2023-05-19T03:47:11.570Z,23.53
2023-05-19T03:48:11.610Z,23.53
2023-05-19T03:49:11.616Z,23.53
2023-05-19T03:50:11.628Z,23.53
2023-05-19T03:51:11.664Z,23.53
2023-05-19T03:52:11.649Z,23.53
2023-05-19T03:53:11.685Z,23.52
2023-05-19T03:54:11.648Z,23.53
2023-05-19T03:55:11.685Z,23.52
2023-05-19T03:56:11.696Z,23.52
2023-05-19T03:57:11.756Z,23.53
2023-05-19T03:58:11.813Z,23.52
2023-05-19T03:59:11.752Z,23.53
2023-05-19T04:00:11.832Z,23.53
2023-05-19T04:01:11.883Z,23.52
2023-05-19T04:02:11.899Z,23.54
2023-05-19T04:03:11.968Z,23.53
2023-05-19T04:04:11.871Z,23.52
2023-05-19T04:05:11.874Z,23.52
2023-05-19T04:06:11.941Z,23.52
2023-05-19T04:07:11.900Z,23.52
2023-05-19T04:08:11.903Z,23.52
2023-05-19T04:09:11.912Z,23.52
2023-05-19T04:10:11.993Z,23.51
2023-05-19T04:11:11.932Z,23.51
2023-05-19T04:12:12.034Z,23.50
2023-05-19T04:13:11.977Z,23.50
2023-05-19T04:14:12.029Z,23.49
2023-05-19T04:15:12.132Z,23.48
2023-05-19T04:16:12.191Z,23.48
2023-05-19T04:17:12.163Z,23.47
2023-05-19T04:18:12.177Z,23.47
2023-05-19T04:19:12.263Z,23.46
2023-05-19T04:20:12.226Z,23.45
2023-05-19T04:21:12.233Z,23.45
2023-05-19T04:22:12.213Z,23.45
2023-05-19T04:23:12.259Z,23.44
2023-05-19T04:24:12.265Z,23.43
2023-05-19T04:25:12.314Z,23.44
2023-05-19T04:26:12.309Z,23.44
2023-05-19T04:27:12.423Z,23.43
2023-05-19T04:28:12.325Z,23.42
2023-05-19T04:29:12.328Z,23.43
2023-05-19T04:30:12.348Z,23.42
2023-05-19T04:31:12.403Z,23.42
2023-05-19T04:32:12.385Z,23.41
2023-05-19T04:33:12.413Z,23.40
2023-05-19T04:34:12.434Z,23.41
2023-05-19T04:35:12.448Z,23.42
2023-05-19T04:36:12.486Z,23.43
2023-05-19T04:37:12.564Z,23.43
2023-05-19T04:38:12.563Z,23.43
2023-05-19T04:39:12.600Z,23.43
2023-05-19T04:40:12.609Z,23.45
2023-05-19T04:41:12.619Z,23.45
2023-05-19T04:42:12.708Z,23.46
2023-05-19T04:43:12.700Z,23.45
2023-05-19T04:44:12.749Z,23.45
2023-05-19T04:45:12.755Z,23.45
2023-05-19T04:46:13.964Z,23.46
2023-05-19T04:47:12.893Z,23.46
2023-05-19T04:48:12.881Z,23.46
2023-05-19T04:49:12.842Z,23.46
2023-05-19T04:50:12.860Z,23.46
2023-05-19T04:51:12.849Z,23.47
2023-05-19T04:52:12.975Z,23.47
2023-05-19T04:53:12.911Z,23.47
2023-05-19T04:54:12.920Z,23.47
2023-05-19T04:55:13.281Z,23.47
2023-05-19T04:56:12.989Z,23.48
2023-05-19T04:57:12.996Z,23.48
2023-05-19T04:58:12.998Z,23.48
2023-05-19T04:59:13.006Z,23.48
2023-05-19T05:00:13.021Z,23.49
2023-05-19T05:01:13.033Z,23.48
2023-05-19T05:02:13.205Z,23.49
2023-05-19T05:03:13.759Z,23.48
2023-05-19T05:04:13.314Z,23.49
2023-05-19T05:05:13.103Z,23.49
2023-05-19T05:06:13.085Z,23.49
2023-05-19T05:07:13.119Z,23.49
2023-05-19T05:08:13.106Z,23.50
2023-05-19T05:09:13.179Z,23.50
2023-05-19T05:10:13.145Z,23.50
2023-05-19T05:11:13.198Z,23.49
2023-05-19T05:12:13.246Z,23.49
2023-05-19T05:13:13.246Z,23.50
2023-05-19T05:14:13.259Z,23.50
2023-05-19T05:15:13.267Z,23.50
2023-05-19T05:16:13.375Z,23.50
2023-05-19T05:17:13.292Z,23.50
2023-05-19T05:18:13.311Z,23.49
2023-05-19T05:19:13.384Z,23.50
2023-05-19T05:20:13.418Z,23.50
2023-05-19T05:21:13.411Z,23.50
2023-05-19T05:22:13.415Z,23.49
2023-05-19T05:23:13.466Z,23.50
2023-05-19T05:24:13.487Z,23.50
2023-05-19T05:25:13.532Z,23.50
2023-05-19T05:26:13.540Z,23.50
2023-05-19T05:27:13.563Z,23.51
2023-05-19T05:28:13.573Z,23.51
2023-05-19T05:29:13.641Z,23.50
2023-05-19T05:30:13.650Z,23.50
2023-05-19T05:31:13.635Z,23.50
2023-05-19T05:32:13.663Z,23.51
2023-05-19T05:33:13.787Z,23.51
2023-05-19T05:34:13.678Z,23.51
2023-05-19T05:35:13.650Z,23.51
2023-05-19T05:36:13.707Z,23.52
2023-05-19T05:37:15.207Z,23.52
2023-05-19T05:38:13.722Z,23.52
2023-05-19T05:39:13.720Z,23.52
2023-05-19T05:40:13.735Z,23.52
2023-05-19T05:41:13.740Z,23.53
2023-05-19T05:42:13.805Z,23.52
2023-05-19T05:43:13.801Z,23.52
2023-05-19T05:44:13.808Z,23.52
2023-05-19T05:45:13.824Z,23.52
2023-05-19T05:46:13.901Z,23.52
2023-05-19T05:47:14.725Z,23.52
2023-05-19T05:48:13.942Z,23.53
2023-05-19T05:49:13.970Z,23.53
2023-05-19T05:50:13.923Z,23.52
2023-05-19T05:51:13.959Z,23.53
2023-05-19T05:52:13.988Z,23.52
2023-05-19T05:53:13.974Z,23.53
2023-05-19T05:54:13.986Z,23.52
2023-05-19T05:55:14.027Z,23.53
2023-05-19T05:56:14.034Z,23.53
2023-05-19T05:57:14.075Z,23.53
2023-05-19T05:58:14.075Z,23.53
2023-05-19T05:59:14.095Z,23.53
2023-05-19T06:00:14.168Z,23.54
2023-05-19T06:01:14.160Z,23.53
2023-05-19T06:02:14.168Z,23.53
2023-05-19T06:03:14.328Z,23.54
2023-05-19T06:04:14.206Z,23.54
2023-05-19T06:05:14.314Z,23.53
2023-05-19T06:06:14.229Z,23.54
2023-05-19T06:07:14.270Z,23.54
2023-05-19T06:08:14.342Z,23.54
2023-05-19T06:09:14.353Z,23.54
2023-05-19T06:10:14.339Z,23.54
2023-05-19T06:11:14.309Z,23.54
2023-05-19T06:12:14.315Z,23.54
2023-05-19T06:13:14.370Z,23.55
2023-05-19T06:14:14.384Z,23.55
2023-05-19T06:15:14.411Z,23.56
2023-05-19T06:16:14.433Z,23.56
2023-05-19T06:17:14.469Z,23.56
2023-05-19T06:18:14.475Z,23.56
2023-05-19T06:19:14.552Z,23.57
2023-05-19T06:20:14.506Z,23.57
2023-05-19T06:21:14.548Z,23.58
2023-05-19T06:22:14.606Z,23.58
2023-05-19T06:23:14.632Z,23.58
2023-05-19T06:24:14.635Z,23.57
2023-05-19T06:25:14.680Z,23.58
2023-05-19T06:26:14.679Z,23.57
2023-05-19T06:27:14.657Z,23.57
2023-05-19T06:28:14.676Z,23.58
2023-05-19T06:29:14.701Z,23.57
2023-05-19T06:30:14.713Z,23.57
2023-05-19T06:31:15.418Z,23.57
2023-05-19T06:32:14.725Z,23.57
2023-05-19T06:33:14.800Z,23.57
2023-05-19T06:34:14.792Z,23.57
2023-05-19T06:35:14.776Z,23.57
2023-05-19T06:36:14.857Z,23.57
2023-05-19T06:37:14.884Z,23.57
2023-05-19T06:38:14.878Z,23.57
2023-05-19T06:39:14.865Z,23.58
2023-05-19T06:40:14.880Z,23.58
2023-05-19T06:41:15.366Z,23.58
2023-05-19T06:42:15.118Z,23.58
2023-05-19T06:43:14.957Z,23.58
2023-05-19T06:44:14.969Z,23.59
2023-05-19T06:45:14.991Z,23.58
2023-05-19T06:46:15.123Z,23.58
2023-05-19T06:47:15.093Z,23.59
2023-05-19T06:48:15.081Z,23.59
2023-05-19T06:49:15.062Z,23.60
2023-05-19T06:50:15.047Z,23.60
2023-05-19T06:51:15.088Z,23.60
2023-05-19T06:52:15.103Z,23.61
2023-05-19T06:53:15.179Z,23.61
2023-05-19T06:54:15.184Z,23.61
2023-05-19T06:55:15.183Z,23.61
2023-05-19T06:56:15.364Z,23.61
2023-05-19T06:57:15.248Z,23.61
2023-05-19T06:58:15.267Z,23.62
2023-05-19T06:59:15.275Z,23.62
2023-05-19T07:00:18.320Z,23.62
2023-05-19T07:01:15.290Z,23.62
2023-05-19T07:02:15.304Z,23.61
2023-05-19T07:03:15.348Z,23.62
2023-05-19T07:04:15.395Z,23.62
2023-05-19T07:05:15.261Z,23.62
2023-05-19T07:06:15.281Z,23.62
2023-05-19T07:07:15.272Z,23.62
2023-05-19T07:08:15.760Z,23.61
2023-05-19T07:09:15.250Z,23.62
2023-05-19T07:10:15.245Z,23.62
2023-05-19T07:11:15.211Z,23.62
2023-05-19T07:12:15.267Z,23.63
2023-05-19T07:13:15.844Z,23.62
2023-05-19T07:14:15.221Z,23.62
2023-05-19T07:15:15.190Z,23.62
2023-05-19T07:16:15.253Z,23.63
2023-05-19T07:17:15.738Z,23.62
2023-05-19T07:18:15.200Z,23.63
2023-05-19T07:19:15.257Z,23.62
2023-05-19T07:20:15.159Z,23.63
2023-05-19T07:21:15.132Z,23.63
2023-05-19T07:22:15.181Z,23.63
2023-05-19T07:23:17.142Z,23.62
2023-05-19T07:24:15.131Z,23.63
2023-05-19T07:25:15.175Z,23.63
2023-05-19T07:26:15.146Z,23.63
2023-05-19T07:27:15.363Z,23.63
2023-05-19T07:28:15.102Z,23.63
2023-05-19T07:29:15.218Z,23.63
2023-05-19T07:30:15.234Z,23.63
2023-05-19T07:31:15.204Z,23.63
2023-05-19T07:32:15.352Z,23.62
2023-05-19T07:33:15.367Z,23.62
2023-05-19T07:34:15.306Z,23.62
2023-05-19T07:35:15.286Z,23.62
2023-05-19T07:36:15.283Z,23.62
2023-05-19T07:37:15.330Z,23.61
2023-05-19T07:38:15.329Z,23.61
2023-05-19T07:39:15.427Z,23.61
2023-05-19T07:40:15.404Z,23.61
2023-05-19T07:41:15.413Z,23.61
2023-05-19T07:42:15.381Z,23.60
2023-05-19T07:43:15.430Z,23.61
2023-05-19T07:44:16.291Z,23.60
2023-05-19T07:45:15.471Z,23.60
2023-05-19T07:46:15.539Z,23.60
2023-05-19T07:47:15.590Z,23.60
2023-05-19T07:48:15.627Z,23.60
2023-05-19T07:49:15.889Z,23.60
2023-05-19T07:50:15.603Z,23.60
2023-05-19T07:51:15.590Z,23.59
2023-05-19T07:52:15.631Z,23.60
2023-05-19T07:53:15.634Z,23.60
2023-05-19T07:54:15.670Z,23.59
2023-05-19T07:55:15.677Z,23.59
2023-05-19T07:56:16.272Z,23.59
2023-05-19T07:57:15.695Z,23.59
2023-05-19T07:58:15.706Z,23.60
2023-05-19T07:59:15.777Z,23.59
2023-05-19T08:00:15.758Z,23.59
2023-05-19T08:01:16.305Z,23.60
2023-05-19T08:02:15.860Z,23.60
2023-05-19T08:03:16.001Z,23.59
2023-05-19T08:04:15.942Z,23.60
2023-05-19T08:05:15.948Z,23.61
2023-05-19T08:06:15.933Z,23.60
2023-05-19T08:07:15.924Z,23.60
2023-05-19T08:08:16.844Z,23.59
2023-05-19T08:09:15.945Z,23.60
2023-05-19T08:10:15.950Z,23.59
2023-05-19T08:11:15.959Z,23.59
2023-05-19T08:12:16.017Z,23.60
2023-05-19T08:13:16.156Z,23.60
2023-05-19T08:14:16.022Z,23.60
2023-05-19T08:15:16.089Z,23.60
2023-05-19T08:16:16.198Z,23.59
2023-05-19T08:17:16.114Z,23.59
2023-05-19T08:18:16.144Z,23.59
2023-05-19T08:19:16.277Z,23.60
2023-05-19T08:20:16.813Z,23.59
2023-05-19T08:21:16.209Z,23.59
2023-05-19T08:22:16.944Z,23.60
2023-05-19T08:23:16.179Z,23.61
2023-05-19T08:24:16.223Z,23.61
2023-05-19T08:25:16.261Z,23.60
2023-05-19T08:26:16.287Z,23.61
2023-05-19T08:27:16.277Z,23.61
2023-05-19T08:28:16.292Z,23.61
2023-05-19T08:29:16.943Z,23.61
2023-05-19T08:30:16.350Z,23.62
2023-05-19T08:31:16.458Z,23.62
2023-05-19T08:32:16.383Z,23.62
2023-05-19T08:33:16.440Z,23.62
2023-05-19T08:34:17.311Z,23.62
2023-05-19T08:35:16.478Z,23.63
2023-05-19T08:36:17.445Z,23.63
2023-05-19T08:37:16.530Z,23.63
2023-05-19T08:38:16.555Z,23.63
2023-05-19T08:39:16.530Z,23.64
2023-05-19T08:40:16.570Z,23.64
2023-05-19T08:41:16.587Z,23.63
2023-05-19T08:42:16.629Z,23.64
2023-05-19T08:43:16.626Z,23.64
2023-05-19T08:44:18.899Z,23.64
2023-05-19T08:45:16.711Z,23.65
2023-05-19T08:46:16.940Z,23.65
2023-05-19T08:47:16.745Z,23.65
2023-05-19T08:48:16.871Z,23.65
2023-05-19T08:49:16.831Z,23.65
2023-05-19T08:50:16.880Z,23.64
2023-05-19T08:51:16.870Z,23.65
2023-05-19T08:52:16.880Z,23.66
2023-05-19T08:53:31.751Z,23.65
2023-05-19T08:54:18.813Z,23.65
2023-05-19T08:55:17.802Z,23.65
2023-05-19T08:56:17.803Z,23.65
2023-05-19T08:57:16.884Z,23.65
2023-05-19T08:58:16.907Z,23.66
2023-05-19T08:59:16.843Z,23.66
2023-05-19T09:00:16.823Z,23.66
2023-05-19T09:01:17.474Z,23.66
2023-05-19T09:02:16.812Z,23.66
2023-05-19T09:04:16.886Z,23.67
2023-05-19T09:05:16.875Z,23.67
2023-05-19T09:06:16.811Z,23.67
2023-05-19T09:07:16.896Z,23.67
2023-05-19T09:08:16.834Z,23.67
2023-05-19T09:09:16.875Z,23.67
2023-05-19T09:10:16.865Z,23.68
2023-05-19T09:11:16.912Z,23.68
2023-05-19T09:12:16.931Z,23.68
2023-05-19T09:13:17.005Z,23.68
2023-05-19T09:14:17.010Z,23.68
2023-05-19T09:15:17.037Z,23.69
2023-05-19T09:16:17.191Z,23.69
2023-05-19T09:17:17.120Z,23.69
2023-05-19T09:18:17.215Z,23.69
2023-05-19T09:19:17.473Z,23.71
2023-05-19T09:20:17.237Z,23.70
2023-05-19T09:21:17.268Z,23.69
2023-05-19T09:22:17.318Z,23.69
2023-05-19T09:23:17.290Z,23.70
2023-05-19T09:24:17.345Z,23.71
2023-05-19T09:25:17.403Z,23.70
2023-05-19T09:26:17.428Z,23.70
2023-05-19T09:27:18.417Z,23.70
2023-05-19T09:28:18.324Z,23.70
2023-05-19T09:29:17.544Z,23.70
2023-05-19T09:30:17.588Z,23.70
2023-05-19T09:31:17.618Z,23.71
2023-05-19T09:32:17.658Z,23.71
2023-05-19T09:33:17.683Z,23.71
2023-05-19T09:34:17.698Z,23.71
2023-05-19T09:35:17.750Z,23.71
2023-05-19T09:36:17.733Z,23.72
2023-05-19T09:37:17.802Z,23.72
2023-05-19T09:38:17.832Z,23.72
2023-05-19T09:39:17.882Z,23.72
2023-05-19T09:40:17.968Z,23.72
2023-05-19T09:41:17.977Z,23.73
2023-05-19T09:42:18.010Z,23.72
2023-05-19T09:43:18.052Z,23.73
2023-05-19T09:44:18.098Z,23.73
2023-05-19T09:45:18.165Z,23.73
2023-05-19T09:46:18.248Z,23.73
2023-05-19T09:47:18.187Z,23.73
2023-05-19T09:48:18.257Z,23.73
2023-05-19T09:49:18.295Z,23.73
2023-05-19T09:50:18.379Z,23.73
2023-05-19T09:51:18.328Z,23.73
2023-05-19T09:52:18.339Z,23.73
2023-05-19T09:53:18.396Z,23.74
2023-05-19T09:54:18.450Z,23.74
2023-05-19T09:55:18.451Z,23.75
2023-05-19T09:56:18.509Z,23.75
2023-05-19T09:57:18.582Z,23.75
2023-05-19T09:58:18.625Z,23.76
2023-05-19T09:59:18.645Z,23.75
2023-05-19T10:00:18.700Z,23.75
2023-05-19T10:01:18.777Z,23.76
2023-05-19T10:02:18.756Z,23.76
2023-05-19T10:03:18.813Z,23.76
2023-05-19T10:04:18.822Z,23.76
2023-05-19T10:05:18.905Z,23.76
2023-05-19T10:06:18.925Z,23.76
2023-05-19T10:07:18.996Z,23.77
2023-05-19T10:08:19.013Z,23.76
2023-05-19T10:09:19.016Z,23.76
2023-05-19T10:10:19.156Z,23.76
2023-05-19T10:11:19.132Z,23.76
2023-05-19T10:12:19.126Z,23.77
2023-05-19T10:13:19.196Z,23.77
2023-05-19T10:14:19.234Z,23.77
2023-05-19T10:15:21.417Z,23.77
2023-05-19T10:16:19.305Z,23.77
2023-05-19T10:17:19.282Z,23.78
2023-05-19T10:18:19.431Z,23.77
2023-05-19T10:19:19.285Z,23.78
2023-05-19T10:20:19.210Z,23.78
2023-05-19T10:21:19.312Z,23.77
2023-05-19T10:22:19.208Z,23.78
2023-05-19T10:23:19.210Z,23.78
2023-05-19T10:24:19.163Z,23.79
2023-05-19T10:25:19.224Z,23.78
2023-05-19T10:26:19.249Z,23.79
2023-05-19T10:27:19.184Z,23.79
2023-05-19T10:28:19.180Z,23.78
2023-05-19T10:29:19.156Z,23.79
2023-05-19T10:30:19.164Z,23.79
2023-05-19T10:31:19.200Z,23.79
2023-05-19T10:32:19.260Z,23.80
2023-05-19T10:33:20.079Z,23.79
2023-05-19T10:34:19.160Z,23.80
2023-05-19T10:35:19.132Z,23.80
2023-05-19T10:36:19.142Z,23.80
2023-05-19T10:37:19.101Z,23.80
2023-05-19T10:38:19.119Z,23.80
2023-05-19T10:39:19.152Z,23.81
2023-05-19T10:40:19.126Z,23.80
2023-05-19T10:41:19.953Z,23.81
2023-05-19T10:42:19.082Z,23.81
2023-05-19T10:43:19.843Z,23.81
2023-05-19T10:44:19.045Z,23.81
2023-05-19T10:45:19.064Z,23.81
2023-05-19T10:46:19.076Z,23.81
2023-05-19T10:47:19.155Z,23.82
2023-05-19T10:48:19.007Z,23.82
2023-05-19T10:49:19.021Z,23.82
2023-05-19T10:50:19.086Z,23.81
2023-05-19T10:51:19.025Z,23.81
2023-05-19T10:52:19.054Z,23.81
2023-05-19T10:53:19.174Z,23.82
2023-05-19T10:54:19.134Z,23.82
2023-05-19T10:55:19.170Z,23.82
2023-05-19T10:56:19.378Z,23.82
2023-05-19T10:57:19.259Z,23.83
2023-05-19T10:58:19.295Z,23.83
2023-05-19T10:59:19.351Z,23.83
2023-05-19T11:00:19.408Z,23.84
2023-05-19T11:01:19.530Z,23.84
2023-05-19T11:02:19.556Z,23.84
2023-05-19T11:03:19.537Z,23.84
2023-05-19T11:04:19.574Z,23.85
2023-05-19T11:05:19.607Z,23.86
2023-05-19T11:06:19.610Z,23.86
2023-05-19T11:07:19.658Z,23.86
2023-05-19T11:08:19.669Z,23.85
2023-05-19T11:09:28.343Z,23.87
2023-05-19T11:10:21.605Z,23.87
2023-05-19T11:11:19.682Z,23.87
2023-05-19T11:12:19.684Z,23.87
2023-05-19T11:13:19.710Z,23.88
2023-05-19T11:14:19.631Z,23.89
2023-05-19T11:15:19.647Z,23.89
2023-05-19T11:16:19.668Z,23.89
2023-05-19T11:17:19.689Z,23.90
2023-05-19T11:18:19.696Z,23.89
2023-05-19T11:19:19.675Z,23.89
2023-05-19T11:20:19.643Z,23.89
2023-05-19T11:21:19.633Z,23.90
2023-05-19T11:22:19.721Z,23.90
2023-05-19T11:23:19.770Z,23.90
2023-05-19T11:24:19.734Z,23.90
2023-05-19T11:25:19.778Z,23.90
2023-05-19T11:26:19.802Z,23.91
2023-05-19T11:27:19.860Z,23.90
2023-05-19T11:28:20.230Z,23.91
2023-05-19T11:29:19.902Z,23.91
2023-05-19T11:30:20.033Z,23.92
2023-05-19T11:31:19.997Z,23.91
2023-05-19T11:32:20.913Z,23.91
2023-05-19T11:33:20.190Z,23.91
2023-05-19T11:34:20.074Z,23.92
2023-05-19T11:35:20.140Z,23.92
2023-05-19T11:36:20.171Z,23.92
2023-05-19T11:37:20.183Z,23.93
2023-05-19T11:38:20.250Z,23.93
2023-05-19T11:39:20.254Z,23.94
2023-05-19T11:40:20.310Z,23.94
2023-05-19T11:41:20.926Z,23.94
2023-05-19T11:42:20.388Z,23.94
2023-05-19T11:43:20.395Z,23.94
2023-05-19T11:44:20.420Z,23.95
2023-05-19T11:45:20.443Z,23.95
2023-05-19T11:46:20.537Z,23.95
2023-05-19T11:47:20.462Z,23.96
2023-05-19T11:48:20.535Z,23.96
2023-05-19T11:49:20.558Z,23.96
2023-05-19T11:50:20.714Z,23.96
2023-05-19T11:51:20.640Z,23.96
2023-05-19T11:52:20.696Z,23.96
2023-05-19T11:53:20.783Z,23.97
2023-05-19T11:54:20.782Z,23.96
2023-05-19T11:55:20.779Z,23.97
2023-05-19T11:56:20.778Z,23.97
2023-05-19T11:57:20.852Z,23.97
2023-05-19T11:58:20.890Z,23.97
2023-05-19T11:59:21.876Z,23.97
2023-05-19T12:00:20.960Z,23.97
2023-05-19T12:01:21.006Z,23.97
2023-05-19T12:02:21.107Z,23.97
2023-05-19T12:03:21.201Z,23.97
2023-05-19T12:04:21.173Z,23.97
2023-05-19T12:05:21.225Z,23.98
2023-05-19T12:06:21.280Z,23.98
2023-05-19T12:07:21.239Z,23.98
2023-05-19T12:08:21.264Z,23.98
2023-05-19T12:09:21.307Z,23.99
2023-05-19T12:10:21.335Z,23.99
2023-05-19T12:11:21.393Z,23.99
2023-05-19T12:12:21.397Z,23.99
2023-05-19T12:13:21.424Z,23.99
2023-05-19T12:14:21.513Z,23.99
2023-05-19T12:15:21.521Z,24.00
2023-05-19T12:16:21.612Z,24.00
2023-05-19T12:17:21.537Z,24.00
2023-05-19T12:18:21.627Z,24.00
2023-05-19T12:19:21.643Z,24.00
2023-05-19T12:20:21.658Z,24.01
2023-05-19T12:21:21.664Z,24.00
2023-05-19T12:22:21.674Z,24.01
2023-05-19T12:23:21.674Z,24.00
2023-05-19T12:24:21.713Z,24.02
2023-05-19T12:25:21.758Z,24.02
2023-05-19T12:26:21.778Z,24.01
2023-05-19T12:27:21.855Z,24.02
2023-05-19T12:28:21.857Z,24.03
2023-05-19T12:29:21.920Z,24.02
2023-05-19T12:30:21.928Z,24.02
2023-05-19T12:31:21.946Z,24.02
2023-05-19T12:32:21.996Z,24.03
2023-05-19T12:33:21.971Z,24.03
2023-05-19T12:34:22.069Z,24.04
2023-05-19T12:35:22.067Z,24.03
2023-05-19T12:36:22.040Z,24.04
2023-05-19T12:37:22.113Z,24.03
2023-05-19T12:38:22.116Z,24.04
2023-05-19T12:39:22.208Z,24.05
2023-05-19T12:40:22.256Z,24.05
2023-05-19T12:41:22.231Z,24.05
2023-05-19T12:42:22.258Z,24.05
2023-05-19T12:43:22.554Z,24.05
2023-05-19T12:44:22.326Z,24.05
2023-05-19T12:45:22.333Z,24.06
2023-05-19T12:46:22.448Z,24.06
2023-05-19T12:47:22.464Z,24.06
2023-05-19T12:48:22.513Z,24.07
2023-05-19T12:49:22.475Z,24.08
2023-05-19T12:50:23.392Z,24.08
2023-05-19T12:51:22.542Z,24.08
2023-05-19T12:52:22.542Z,24.09
2023-05-19T12:53:22.594Z,24.09